sensor_id;sensor_type;location;lat;lon;timestamp;temperature;humidity
44823;DHT22;51097;51.984;5.650;2023-02-28T00:00:44;2.20;99.90
44823;DHT22;51097;51.984;5.650;2023-02-28T00:03:09;2.30;99.90
44823;DHT22;51097;51.984;5.650;2023-02-28T00:05:35;2.20;99.90
44823;DHT22;51097;51.984;5.650;2023-02-28T00:08:01;2.30;99.90
44823;DHT22;51097;51.984;5.650;2023-02-28T00:10:28;2.20;99.90
44823;DHT22;51097;51.984;5.650;2023-02-28T00:12:58;2.30;99.90
44823;DHT22;51097;51.984;5.650;2023-02-28T00:15:24;2.40;99.90
44823;DHT22;51097;51.984;5.650;2023-02-28T00:17:50;2.40;99.90
44823;DHT22;51097;51.984;5.650;2023-02-28T00:20:16;2.50;99.90
44823;DHT22;51097;51.984;5.650;2023-02-28T00:22:46;2.50;99.90
44823;DHT22;51097;51.984;5.650;2023-02-28T00:25:15;2.50;99.90
44823;DHT22;51097;51.984;5.650;2023-02-28T00:27:41;2.60;99.90
44823;DHT22;51097;51.984;5.650;2023-02-28T00:30:09;2.60;99.90
44823;DHT22;51097;51.984;5.650;2023-02-28T00:32:35;2.70;99.90
44823;DHT22;51097;51.984;5.650;2023-02-28T00:35:01;2.80;99.90
44823;DHT22;51097;51.984;5.650;2023-02-28T00:37:27;2.80;99.90
44823;DHT22;51097;51.984;5.650;2023-02-28T00:39:53;2.90;99.90
44823;DHT22;51097;51.984;5.650;2023-02-28T00:42:18;3.00;99.90
44823;DHT22;51097;51.984;5.650;2023-02-28T00:44:44;3.10;99.90
44823;DHT22;51097;51.984;5.650;2023-02-28T00:47:09;3.10;99.90
44823;DHT22;51097;51.984;5.650;2023-02-28T00:49:35;3.40;99.90
44823;DHT22;51097;51.984;5.650;2023-02-28T00:52:01;3.20;99.90
44823;DHT22;51097;51.984;5.650;2023-02-28T00:54:26;3.40;99.90
44823;DHT22;51097;51.984;5.650;2023-02-28T00:56:52;3.40;99.90
44823;DHT22;51097;51.984;5.650;2023-02-28T00:59:18;3.50;99.90
44823;DHT22;51097;51.984;5.650;2023-02-28T01:01:45;3.50;99.90
44823;DHT22;51097;51.984;5.650;2023-02-28T01:04:12;3.60;99.90
44823;DHT22;51097;51.984;5.650;2023-02-28T01:06:37;3.70;99.90
44823;DHT22;51097;51.984;5.650;2023-02-28T01:09:04;3.80;99.90
44823;DHT22;51097;51.984;5.650;2023-02-28T01:11:31;3.80;99.90
44823;DHT22;51097;51.984;5.650;2023-02-28T01:13:58;3.80;99.90
44823;DHT22;51097;51.984;5.650;2023-02-28T01:16:24;3.90;99.90
44823;DHT22;51097;51.984;5.650;2023-02-28T01:18:50;3.90;99.90
44823;DHT22;51097;51.984;5.650;2023-02-28T01:21:17;3.90;99.90
44823;DHT22;51097;51.984;5.650;2023-02-28T01:23:43;4.00;99.90
44823;DHT22;51097;51.984;5.650;2023-02-28T01:26:14;4.00;99.90
44823;DHT22;51097;51.984;5.650;2023-02-28T01:28:41;4.00;99.90
44823;DHT22;51097;51.984;5.650;2023-02-28T01:31:07;4.00;99.90
44823;DHT22;51097;51.984;5.650;2023-02-28T01:33:33;4.10;99.90
44823;DHT22;51097;51.984;5.650;2023-02-28T01:36:00;4.10;99.90
44823;DHT22;51097;51.984;5.650;2023-02-28T01:38:26;4.10;99.90
44823;DHT22;51097;51.984;5.650;2023-02-28T01:40:52;4.20;99.90
44823;DHT22;51097;51.984;5.650;2023-02-28T01:43:28;4.20;99.90
44823;DHT22;51097;51.984;5.650;2023-02-28T01:45:55;4.20;99.90
44823;DHT22;51097;51.984;5.650;2023-02-28T01:48:27;4.30;99.90
44823;DHT22;51097;51.984;5.650;2023-02-28T01:50:59;4.30;99.90
44823;DHT22;51097;51.984;5.650;2023-02-28T01:53:39;4.30;99.90
44823;DHT22;51097;51.984;5.650;2023-02-28T01:56:09;4.40;99.90
44823;DHT22;51097;51.984;5.650;2023-02-28T01:58:37;4.40;99.90
44823;DHT22;51097;51.984;5.650;2023-02-28T02:01:03;4.40;99.90
44823;DHT22;51097;51.984;5.650;2023-02-28T02:03:30;4.50;99.90
44823;DHT22;51097;51.984;5.650;2023-02-28T02:05:56;4.50;99.90
44823;DHT22;51097;51.984;5.650;2023-02-28T02:08:26;4.60;99.90
44823;DHT22;51097;51.984;5.650;2023-02-28T02:10:59;4.60;99.90
44823;DHT22;51097;51.984;5.650;2023-02-28T02:16:23;4.60;99.90
44823;DHT22;51097;51.984;5.650;2023-02-28T02:22:12;4.80;99.90
44823;DHT22;51097;51.984;5.650;2023-02-28T02:28:03;4.80;99.90
44823;DHT22;51097;51.984;5.650;2023-02-28T02:41:28;4.90;99.90
44823;DHT22;51097;51.984;5.650;2023-02-28T02:44:02;4.90;99.90
44823;DHT22;51097;51.984;5.650;2023-02-28T02:46:39;5.00;99.90
44823;DHT22;51097;51.984;5.650;2023-02-28T02:49:09;5.00;99.90
44823;DHT22;51097;51.984;5.650;2023-02-28T02:51:36;5.00;99.90
44823;DHT22;51097;51.984;5.650;2023-02-28T02:54:26;5.00;99.90
44823;DHT22;51097;51.984;5.650;2023-02-28T02:56:59;5.00;99.90
44823;DHT22;51097;51.984;5.650;2023-02-28T02:59:28;5.00;99.90
44823;DHT22;51097;51.984;5.650;2023-02-28T03:01:58;5.00;99.90
44823;DHT22;51097;51.984;5.650;2023-02-28T03:04:26;5.10;99.90
44823;DHT22;51097;51.984;5.650;2023-02-28T03:06:53;5.10;99.90
44823;DHT22;51097;51.984;5.650;2023-02-28T03:09:23;5.10;99.90
44823;DHT22;51097;51.984;5.650;2023-02-28T03:11:51;5.10;99.90
44823;DHT22;51097;51.984;5.650;2023-02-28T03:14:21;5.10;99.90
44823;DHT22;51097;51.984;5.650;2023-02-28T03:22:45;5.30;99.90
44823;DHT22;51097;51.984;5.650;2023-02-28T03:30:47;5.20;99.90
44823;DHT22;51097;51.984;5.650;2023-02-28T03:33:24;5.20;99.90
44823;DHT22;51097;51.984;5.650;2023-02-28T03:36:18;5.20;99.90
44823;DHT22;51097;51.984;5.650;2023-02-28T03:38:56;5.20;99.90
44823;DHT22;51097;51.984;5.650;2023-02-28T03:41:24;5.20;99.90
44823;DHT22;51097;51.984;5.650;2023-02-28T03:44:19;5.20;99.90
44823;DHT22;51097;51.984;5.650;2023-02-28T03:46:54;5.20;99.90
44823;DHT22;51097;51.984;5.650;2023-02-28T03:49:24;5.20;99.90
44823;DHT22;51097;51.984;5.650;2023-02-28T03:51:54;5.20;99.90
44823;DHT22;51097;51.984;5.650;2023-02-28T03:54:31;5.20;99.90
44823;DHT22;51097;51.984;5.650;2023-02-28T03:59:59;5.20;99.90
44823;DHT22;51097;51.984;5.650;2023-02-28T04:02:29;5.20;99.90
44823;DHT22;51097;51.984;5.650;2023-02-28T04:04:55;5.30;99.90
44823;DHT22;51097;51.984;5.650;2023-02-28T04:07:20;5.30;99.90
44823;DHT22;51097;51.984;5.650;2023-02-28T04:09:46;5.30;99.90
44823;DHT22;51097;51.984;5.650;2023-02-28T04:12:12;5.30;99.90
44823;DHT22;51097;51.984;5.650;2023-02-28T04:14:37;5.40;99.90
44823;DHT22;51097;51.984;5.650;2023-02-28T04:17:03;5.20;99.90
44823;DHT22;51097;51.984;5.650;2023-02-28T04:19:28;5.30;99.90
44823;DHT22;51097;51.984;5.650;2023-02-28T04:21:54;5.20;99.90
44823;DHT22;51097;51.984;5.650;2023-02-28T04:24:25;5.20;99.90
44823;DHT22;51097;51.984;5.650;2023-02-28T04:26:53;5.20;99.90
44823;DHT22;51097;51.984;5.650;2023-02-28T04:29:27;5.10;99.90
44823;DHT22;51097;51.984;5.650;2023-02-28T04:31:53;5.20;99.90
44823;DHT22;51097;51.984;5.650;2023-02-28T04:34:20;5.20;99.90
44823;DHT22;51097;51.984;5.650;2023-02-28T04:36:47;5.30;99.90
44823;DHT22;51097;51.984;5.650;2023-02-28T04:39:15;5.30;99.90
44823;DHT22;51097;51.984;5.650;2023-02-28T04:41:40;5.40;99.90
44823;DHT22;51097;51.984;5.650;2023-02-28T04:44:06;5.30;99.90
44823;DHT22;51097;51.984;5.650;2023-02-28T04:46:31;5.30;99.90
44823;DHT22;51097;51.984;5.650;2023-02-28T04:48:57;5.30;99.90
44823;DHT22;51097;51.984;5.650;2023-02-28T04:51:23;5.30;99.90
44823;DHT22;51097;51.984;5.650;2023-02-28T04:53:48;5.30;99.90
44823;DHT22;51097;51.984;5.650;2023-02-28T04:56:16;5.30;99.90
44823;DHT22;51097;51.984;5.650;2023-02-28T04:58:42;5.30;99.90
44823;DHT22;51097;51.984;5.650;2023-02-28T05:01:28;5.30;99.90
44823;DHT22;51097;51.984;5.650;2023-02-28T05:03:57;5.30;99.90
44823;DHT22;51097;51.984;5.650;2023-02-28T05:06:24;5.30;99.90
44823;DHT22;51097;51.984;5.650;2023-02-28T05:08:51;5.30;99.90
44823;DHT22;51097;51.984;5.650;2023-02-28T05:11:25;5.30;99.90
44823;DHT22;51097;51.984;5.650;2023-02-28T05:13:52;5.30;99.90
44823;DHT22;51097;51.984;5.650;2023-02-28T05:16:18;5.40;99.90
44823;DHT22;51097;51.984;5.650;2023-02-28T05:18:44;5.40;99.90
44823;DHT22;51097;51.984;5.650;2023-02-28T05:21:26;5.40;99.90
44823;DHT22;51097;51.984;5.650;2023-02-28T05:23:53;5.40;99.90
44823;DHT22;51097;51.984;5.650;2023-02-28T05:26:20;5.30;99.90
44823;DHT22;51097;51.984;5.650;2023-02-28T05:28:46;5.30;99.90
44823;DHT22;51097;51.984;5.650;2023-02-28T05:31:11;5.40;99.90
44823;DHT22;51097;51.984;5.650;2023-02-28T05:33:37;5.30;99.90
44823;DHT22;51097;51.984;5.650;2023-02-28T05:36:03;5.30;99.90
44823;DHT22;51097;51.984;5.650;2023-02-28T05:38:29;5.40;99.90
44823;DHT22;51097;51.984;5.650;2023-02-28T05:40:55;5.40;99.90
44823;DHT22;51097;51.984;5.650;2023-02-28T05:43:21;5.30;99.90
44823;DHT22;51097;51.984;5.650;2023-02-28T05:45:47;5.30;99.90
44823;DHT22;51097;51.984;5.650;2023-02-28T05:48:12;5.30;99.90
44823;DHT22;51097;51.984;5.650;2023-02-28T05:50:38;5.30;99.90
44823;DHT22;51097;51.984;5.650;2023-02-28T05:53:04;5.30;99.90
44823;DHT22;51097;51.984;5.650;2023-02-28T05:55:29;5.30;99.90
44823;DHT22;51097;51.984;5.650;2023-02-28T05:57:55;5.30;99.90
44823;DHT22;51097;51.984;5.650;2023-02-28T06:00:21;5.30;99.90
44823;DHT22;51097;51.984;5.650;2023-02-28T06:02:47;5.30;99.90
44823;DHT22;51097;51.984;5.650;2023-02-28T06:05:17;5.30;99.90
44823;DHT22;51097;51.984;5.650;2023-02-28T06:07:43;5.30;99.90
44823;DHT22;51097;51.984;5.650;2023-02-28T06:10:10;5.30;99.90
44823;DHT22;51097;51.984;5.650;2023-02-28T06:12:36;5.30;99.90
44823;DHT22;51097;51.984;5.650;2023-02-28T06:15:02;5.30;99.90
44823;DHT22;51097;51.984;5.650;2023-02-28T06:17:28;5.30;99.90
44823;DHT22;51097;51.984;5.650;2023-02-28T06:19:54;5.30;99.90
44823;DHT22;51097;51.984;5.650;2023-02-28T06:22:19;5.40;99.90
44823;DHT22;51097;51.984;5.650;2023-02-28T06:24:45;5.30;99.90
44823;DHT22;51097;51.984;5.650;2023-02-28T06:27:10;5.30;99.90
44823;DHT22;51097;51.984;5.650;2023-02-28T06:29:36;5.30;99.90
44823;DHT22;51097;51.984;5.650;2023-02-28T06:32:05;5.30;99.90
44823;DHT22;51097;51.984;5.650;2023-02-28T06:34:31;5.30;99.90
44823;DHT22;51097;51.984;5.650;2023-02-28T06:36:56;5.30;99.90
44823;DHT22;51097;51.984;5.650;2023-02-28T06:39:28;5.40;99.90
44823;DHT22;51097;51.984;5.650;2023-02-28T06:41:53;5.40;99.90
44823;DHT22;51097;51.984;5.650;2023-02-28T06:44:19;5.30;99.90
44823;DHT22;51097;51.984;5.650;2023-02-28T06:46:45;5.40;99.90
44823;DHT22;51097;51.984;5.650;2023-02-28T06:49:11;5.40;99.90
44823;DHT22;51097;51.984;5.650;2023-02-28T06:51:39;5.40;99.90
44823;DHT22;51097;51.984;5.650;2023-02-28T06:54:05;5.40;99.90
44823;DHT22;51097;51.984;5.650;2023-02-28T06:56:34;5.40;99.90
44823;DHT22;51097;51.984;5.650;2023-02-28T06:59:00;5.40;99.90
44823;DHT22;51097;51.984;5.650;2023-02-28T07:01:25;5.40;99.90
44823;DHT22;51097;51.984;5.650;2023-02-28T07:03:53;5.40;99.90
44823;DHT22;51097;51.984;5.650;2023-02-28T07:06:20;5.40;99.90
44823;DHT22;51097;51.984;5.650;2023-02-28T07:08:48;5.40;99.90
44823;DHT22;51097;51.984;5.650;2023-02-28T07:11:14;5.50;99.90
44823;DHT22;51097;51.984;5.650;2023-02-28T07:13:40;5.50;99.90
44823;DHT22;51097;51.984;5.650;2023-02-28T07:16:08;5.50;99.90
44823;DHT22;51097;51.984;5.650;2023-02-28T07:18:35;5.50;99.90
44823;DHT22;51097;51.984;5.650;2023-02-28T07:21:09;5.60;99.90
44823;DHT22;51097;51.984;5.650;2023-02-28T07:23:35;5.60;99.90
44823;DHT22;51097;51.984;5.650;2023-02-28T07:26:01;5.70;99.90
44823;DHT22;51097;51.984;5.650;2023-02-28T07:28:26;5.70;99.90
44823;DHT22;51097;51.984;5.650;2023-02-28T07:30:52;5.80;99.90
44823;DHT22;51097;51.984;5.650;2023-02-28T07:33:18;5.80;99.90
44823;DHT22;51097;51.984;5.650;2023-02-28T07:35:43;5.80;99.90
44823;DHT22;51097;51.984;5.650;2023-02-28T07:38:09;5.90;99.90
44823;DHT22;51097;51.984;5.650;2023-02-28T07:40:35;5.90;99.90
44823;DHT22;51097;51.984;5.650;2023-02-28T07:43:02;6.00;99.90
44823;DHT22;51097;51.984;5.650;2023-02-28T07:45:28;6.10;99.90
44823;DHT22;51097;51.984;5.650;2023-02-28T07:47:55;6.10;99.90
44823;DHT22;51097;51.984;5.650;2023-02-28T07:50:21;6.10;99.90
44823;DHT22;51097;51.984;5.650;2023-02-28T07:52:47;6.20;99.90
44823;DHT22;51097;51.984;5.650;2023-02-28T07:55:13;6.20;99.90
44823;DHT22;51097;51.984;5.650;2023-02-28T07:57:40;6.20;99.90
44823;DHT22;51097;51.984;5.650;2023-02-28T08:00:08;6.30;99.90
44823;DHT22;51097;51.984;5.650;2023-02-28T08:02:35;6.30;99.90
44823;DHT22;51097;51.984;5.650;2023-02-28T08:05:01;6.40;99.90
44823;DHT22;51097;51.984;5.650;2023-02-28T08:07:27;6.50;99.90
44823;DHT22;51097;51.984;5.650;2023-02-28T08:09:52;6.50;99.90
44823;DHT22;51097;51.984;5.650;2023-02-28T08:12:18;6.60;99.90
44823;DHT22;51097;51.984;5.650;2023-02-28T08:14:43;6.70;99.90
44823;DHT22;51097;51.984;5.650;2023-02-28T08:17:10;6.70;99.90
44823;DHT22;51097;51.984;5.650;2023-02-28T08:19:36;6.80;99.90
44823;DHT22;51097;51.984;5.650;2023-02-28T08:22:01;6.70;99.90
44823;DHT22;51097;51.984;5.650;2023-02-28T08:24:27;6.60;99.90
44823;DHT22;51097;51.984;5.650;2023-02-28T08:26:53;6.60;99.50
44823;DHT22;51097;51.984;5.650;2023-02-28T08:29:18;6.80;99.10
44823;DHT22;51097;51.984;5.650;2023-02-28T08:31:44;6.90;98.90
44823;DHT22;51097;51.984;5.650;2023-02-28T08:34:13;7.10;96.20
44823;DHT22;51097;51.984;5.650;2023-02-28T08:36:39;7.10;95.60
44823;DHT22;51097;51.984;5.650;2023-02-28T08:39:05;7.10;95.20
44823;DHT22;51097;51.984;5.650;2023-02-28T08:41:32;7.20;94.60
44823;DHT22;51097;51.984;5.650;2023-02-28T08:43:57;7.30;94.40
44823;DHT22;51097;51.984;5.650;2023-02-28T08:46:23;7.30;94.40
44823;DHT22;51097;51.984;5.650;2023-02-28T08:48:52;7.50;94.30
44823;DHT22;51097;51.984;5.650;2023-02-28T08:51:19;7.60;93.80
44823;DHT22;51097;51.984;5.650;2023-02-28T08:53:53;7.50;92.40
44823;DHT22;51097;51.984;5.650;2023-02-28T08:56:19;7.30;92.80
44823;DHT22;51097;51.984;5.650;2023-02-28T08:58:46;7.30;92.10
44823;DHT22;51097;51.984;5.650;2023-02-28T09:01:20;7.30;92.90
44823;DHT22;51097;51.984;5.650;2023-02-28T09:03:48;7.40;93.50
44823;DHT22;51097;51.984;5.650;2023-02-28T09:06:15;7.50;93.40
44823;DHT22;51097;51.984;5.650;2023-02-28T09:08:41;7.60;93.40
44823;DHT22;51097;51.984;5.650;2023-02-28T09:11:08;7.60;92.40
44823;DHT22;51097;51.984;5.650;2023-02-28T09:13:34;7.70;92.10
44823;DHT22;51097;51.984;5.650;2023-02-28T09:16:02;7.80;91.70
44823;DHT22;51097;51.984;5.650;2023-02-28T09:18:28;7.80;90.90
44823;DHT22;51097;51.984;5.650;2023-02-28T09:20:54;7.70;90.90
44823;DHT22;51097;51.984;5.650;2023-02-28T09:23:19;7.50;90.40
44823;DHT22;51097;51.984;5.650;2023-02-28T09:25:47;7.30;90.70
44823;DHT22;51097;51.984;5.650;2023-02-28T09:28:14;7.30;92.40
44823;DHT22;51097;51.984;5.650;2023-02-28T09:30:49;7.40;90.00
44823;DHT22;51097;51.984;5.650;2023-02-28T09:33:16;7.60;89.10
44823;DHT22;51097;51.984;5.650;2023-02-28T09:35:42;7.70;86.70
44823;DHT22;51097;51.984;5.650;2023-02-28T09:38:09;7.80;85.80
44823;DHT22;51097;51.984;5.650;2023-02-28T09:40:50;7.60;86.30
44823;DHT22;51097;51.984;5.650;2023-02-28T09:43:19;7.70;84.70
44823;DHT22;51097;51.984;5.650;2023-02-28T09:45:52;7.70;85.30
44823;DHT22;51097;51.984;5.650;2023-02-28T09:48:27;7.60;86.20
44823;DHT22;51097;51.984;5.650;2023-02-28T09:51:00;7.60;85.40
44823;DHT22;51097;51.984;5.650;2023-02-28T09:53:30;7.70;86.50
44823;DHT22;51097;51.984;5.650;2023-02-28T10:01:11;7.80;84.50
44823;DHT22;51097;51.984;5.650;2023-02-28T10:03:56;7.80;85.50
44823;DHT22;51097;51.984;5.650;2023-02-28T10:06:29;8.00;85.20
44823;DHT22;51097;51.984;5.650;2023-02-28T10:09:03;7.90;84.10
44823;DHT22;51097;51.984;5.650;2023-02-28T10:11:32;8.00;82.00
44823;DHT22;51097;51.984;5.650;2023-02-28T10:17:04;8.00;83.50
44823;DHT22;51097;51.984;5.650;2023-02-28T10:22:33;7.90;81.60
44823;DHT22;51097;51.984;5.650;2023-02-28T10:25:00;7.80;82.10
44823;DHT22;51097;51.984;5.650;2023-02-28T10:27:32;7.80;83.00
44823;DHT22;51097;51.984;5.650;2023-02-28T10:30:00;7.90;82.90
44823;DHT22;51097;51.984;5.650;2023-02-28T10:32:32;8.00;84.20
44823;DHT22;51097;51.984;5.650;2023-02-28T10:37:27;8.30;83.40
44823;DHT22;51097;51.984;5.650;2023-02-28T10:39:53;8.50;86.00
44823;DHT22;51097;51.984;5.650;2023-02-28T10:42:22;8.60;87.00
44823;DHT22;51097;51.984;5.650;2023-02-28T10:47:34;8.70;82.20
44823;DHT22;51097;51.984;5.650;2023-02-28T10:50:01;8.70;83.20
44823;DHT22;51097;51.984;5.650;2023-02-28T10:52:37;8.70;83.90
44823;DHT22;51097;51.984;5.650;2023-02-28T10:55:36;8.80;84.40
44823;DHT22;51097;51.984;5.650;2023-02-28T10:58:02;8.80;84.80
44823;DHT22;51097;51.984;5.650;2023-02-28T11:00:34;8.80;87.10
44823;DHT22;51097;51.984;5.650;2023-02-28T11:03:00;8.90;85.50
44823;DHT22;51097;51.984;5.650;2023-02-28T11:05:33;8.90;85.50
44823;DHT22;51097;51.984;5.650;2023-02-28T11:08:13;8.90;86.00
44823;DHT22;51097;51.984;5.650;2023-02-28T11:10:39;8.90;87.50
44823;DHT22;51097;51.984;5.650;2023-02-28T11:13:17;8.90;87.00
44823;DHT22;51097;51.984;5.650;2023-02-28T11:15:51;9.00;86.80
44823;DHT22;51097;51.984;5.650;2023-02-28T11:20:54;9.00;83.10
44823;DHT22;51097;51.984;5.650;2023-02-28T11:23:21;9.00;82.70
44823;DHT22;51097;51.984;5.650;2023-02-28T11:25:52;9.00;83.50
44823;DHT22;51097;51.984;5.650;2023-02-28T11:28:33;9.00;84.30
44823;DHT22;51097;51.984;5.650;2023-02-28T11:36:08;8.90;85.70
44823;DHT22;51097;51.984;5.650;2023-02-28T11:38:35;8.90;86.70
44823;DHT22;51097;51.984;5.650;2023-02-28T11:41:39;9.10;85.80
44823;DHT22;51097;51.984;5.650;2023-02-28T11:46:59;9.40;84.90
44823;DHT22;51097;51.984;5.650;2023-02-28T11:52:02;9.40;85.40
44823;DHT22;51097;51.984;5.650;2023-02-28T11:54:48;9.40;86.40
44823;DHT22;51097;51.984;5.650;2023-02-28T11:57:30;9.40;85.70
44823;DHT22;51097;51.984;5.650;2023-02-28T12:00:25;9.50;84.90
44823;DHT22;51097;51.984;5.650;2023-02-28T12:06:47;9.60;82.00
44823;DHT22;51097;51.984;5.650;2023-02-28T12:09:00;9.60;84.70
44823;DHT22;51097;51.984;5.650;2023-02-28T12:19:42;10.20;84.90
44823;DHT22;51097;51.984;5.650;2023-02-28T12:22:24;10.50;82.80
44823;DHT22;51097;51.984;5.650;2023-02-28T12:25:18;10.60;80.70
44823;DHT22;51097;51.984;5.650;2023-02-28T12:27:48;10.30;81.10
44823;DHT22;51097;51.984;5.650;2023-02-28T12:30:25;10.30;80.30
44823;DHT22;51097;51.984;5.650;2023-02-28T12:33:03;10.30;80.90
44823;DHT22;51097;51.984;5.650;2023-02-28T12:35:37;10.40;84.10
44823;DHT22;51097;51.984;5.650;2023-02-28T12:38:18;10.30;80.20
44823;DHT22;51097;51.984;5.650;2023-02-28T12:40:49;10.40;78.50
44823;DHT22;51097;51.984;5.650;2023-02-28T12:43:17;10.60;86.50
44823;DHT22;51097;51.984;5.650;2023-02-28T12:45:48;10.70;82.00
44823;DHT22;51097;51.984;5.650;2023-02-28T12:48:23;10.80;84.30
44823;DHT22;51097;51.984;5.650;2023-02-28T12:50:50;11.10;84.80
44823;DHT22;51097;51.984;5.650;2023-02-28T12:53:29;11.10;80.40
44823;DHT22;51097;51.984;5.650;2023-02-28T12:58:45;11.30;76.30
44823;DHT22;51097;51.984;5.650;2023-02-28T13:09:31;11.00;82.90
44823;DHT22;51097;51.984;5.650;2023-02-28T13:11:57;11.10;81.90
44823;DHT22;51097;51.984;5.650;2023-02-28T13:14:36;11.40;85.20
44823;DHT22;51097;51.984;5.650;2023-02-28T13:17:11;11.50;83.30
44823;DHT22;51097;51.984;5.650;2023-02-28T13:22:20;11.40;76.10
44823;DHT22;51097;51.984;5.650;2023-02-28T13:29:52;11.60;76.20
44823;DHT22;51097;51.984;5.650;2023-02-28T13:32:32;11.70;79.00
44823;DHT22;51097;51.984;5.650;2023-02-28T13:39:57;11.80;81.70
44823;DHT22;51097;51.984;5.650;2023-02-28T13:56:09;12.30;76.70
44823;DHT22;51097;51.984;5.650;2023-02-28T14:06:22;12.70;73.20
44823;DHT22;51097;51.984;5.650;2023-02-28T14:11:39;12.40;78.60
44823;DHT22;51097;51.984;5.650;2023-02-28T14:14:07;12.10;86.70
44823;DHT22;51097;51.984;5.650;2023-02-28T14:16:59;12.10;83.70
44823;DHT22;51097;51.984;5.650;2023-02-28T14:19:31;12.30;80.10
44823;DHT22;51097;51.984;5.650;2023-02-28T14:34:02;12.40;87.80
44823;DHT22;51097;51.984;5.650;2023-02-28T14:36:36;12.50;82.40
44823;DHT22;51097;51.984;5.650;2023-02-28T14:39:13;12.40;86.90
44823;DHT22;51097;51.984;5.650;2023-02-28T14:41:41;12.40;83.60
44823;DHT22;51097;51.984;5.650;2023-02-28T14:44:27;12.50;82.70
44823;DHT22;51097;51.984;5.650;2023-02-28T14:46:58;12.70;81.50
44823;DHT22;51097;51.984;5.650;2023-02-28T14:49:31;12.60;76.00
44823;DHT22;51097;51.984;5.650;2023-02-28T14:54:36;12.60;76.40
44823;DHT22;51097;51.984;5.650;2023-02-28T14:57:03;12.50;79.10
44823;DHT22;51097;51.984;5.650;2023-02-28T14:59:31;12.50;77.20
44823;DHT22;51097;51.984;5.650;2023-02-28T15:02:20;12.10;79.20
44823;DHT22;51097;51.984;5.650;2023-02-28T15:04:54;12.10;77.20
44823;DHT22;51097;51.984;5.650;2023-02-28T15:07:20;12.00;81.30
44823;DHT22;51097;51.984;5.650;2023-02-28T15:10:07;11.80;86.30
44823;DHT22;51097;51.984;5.650;2023-02-28T15:12:34;11.90;80.30
44823;DHT22;51097;51.984;5.650;2023-02-28T15:15:01;12.00;78.20
44823;DHT22;51097;51.984;5.650;2023-02-28T15:17:26;12.00;78.20
44823;DHT22;51097;51.984;5.650;2023-02-28T15:19:53;12.00;80.80
44823;DHT22;51097;51.984;5.650;2023-02-28T15:22:35;12.00;78.00
44823;DHT22;51097;51.984;5.650;2023-02-28T15:25:03;12.10;76.30
44823;DHT22;51097;51.984;5.650;2023-02-28T15:27:32;11.90;80.10
44823;DHT22;51097;51.984;5.650;2023-02-28T15:30:07;11.70;76.60
44823;DHT22;51097;51.984;5.650;2023-02-28T15:32:35;11.60;78.00
44823;DHT22;51097;51.984;5.650;2023-02-28T15:37:48;11.10;81.90
44823;DHT22;51097;51.984;5.650;2023-02-28T15:40:26;11.10;84.70
44823;DHT22;51097;51.984;5.650;2023-02-28T15:43:22;11.20;78.30
44823;DHT22;51097;51.984;5.650;2023-02-28T15:45:51;11.30;80.60
44823;DHT22;51097;51.984;5.650;2023-02-28T15:48:26;11.20;81.00
44823;DHT22;51097;51.984;5.650;2023-02-28T15:50:55;10.90;78.30
44823;DHT22;51097;51.984;5.650;2023-02-28T15:53:27;10.80;78.30
44823;DHT22;51097;51.984;5.650;2023-02-28T15:55:58;10.60;79.80
44823;DHT22;51097;51.984;5.650;2023-02-28T15:58:25;10.60;81.40
44823;DHT22;51097;51.984;5.650;2023-02-28T16:01:27;10.70;80.10
44823;DHT22;51097;51.984;5.650;2023-02-28T16:03:57;10.80;80.10
44823;DHT22;51097;51.984;5.650;2023-02-28T16:06:39;10.90;81.60
44823;DHT22;51097;51.984;5.650;2023-02-28T16:09:13;10.90;78.20
44823;DHT22;51097;51.984;5.650;2023-02-28T16:11:43;11.10;79.50
44823;DHT22;51097;51.984;5.650;2023-02-28T16:14:20;11.00;77.70
44823;DHT22;51097;51.984;5.650;2023-02-28T16:16:50;11.00;77.90
44823;DHT22;51097;51.984;5.650;2023-02-28T16:19:17;11.00;78.60
44823;DHT22;51097;51.984;5.650;2023-02-28T16:21:43;10.90;82.30
44823;DHT22;51097;51.984;5.650;2023-02-28T16:24:08;10.90;80.40
44823;DHT22;51097;51.984;5.650;2023-02-28T16:26:34;10.60;80.20
44823;DHT22;51097;51.984;5.650;2023-02-28T16:29:03;10.60;81.90
44823;DHT22;51097;51.984;5.650;2023-02-28T16:31:29;10.60;82.20
44823;DHT22;51097;51.984;5.650;2023-02-28T16:33:55;10.50;80.40
44823;DHT22;51097;51.984;5.650;2023-02-28T16:36:22;10.40;81.40
44823;DHT22;51097;51.984;5.650;2023-02-28T16:38:50;10.50;80.00
44823;DHT22;51097;51.984;5.650;2023-02-28T16:41:22;10.30;81.30
44823;DHT22;51097;51.984;5.650;2023-02-28T16:43:50;10.10;80.80
44823;DHT22;51097;51.984;5.650;2023-02-28T16:46:17;10.20;83.00
44823;DHT22;51097;51.984;5.650;2023-02-28T16:48:44;10.00;84.00
44823;DHT22;51097;51.984;5.650;2023-02-28T16:51:14;10.10;81.50
44823;DHT22;51097;51.984;5.650;2023-02-28T16:53:40;10.00;83.40
44823;DHT22;51097;51.984;5.650;2023-02-28T16:56:08;9.80;83.00
44823;DHT22;51097;51.984;5.650;2023-02-28T16:58:38;9.70;84.60
44823;DHT22;51097;51.984;5.650;2023-02-28T17:01:04;9.60;84.40
44823;DHT22;51097;51.984;5.650;2023-02-28T17:03:30;9.50;85.40
44823;DHT22;51097;51.984;5.650;2023-02-28T17:05:55;9.40;85.00
44823;DHT22;51097;51.984;5.650;2023-02-28T17:08:21;9.30;85.70
44823;DHT22;51097;51.984;5.650;2023-02-28T17:10:46;9.10;86.70
44823;DHT22;51097;51.984;5.650;2023-02-28T17:13:12;9.10;87.00
44823;DHT22;51097;51.984;5.650;2023-02-28T17:15:38;9.00;85.40
44823;DHT22;51097;51.984;5.650;2023-02-28T17:18:05;8.90;86.00
44823;DHT22;51097;51.984;5.650;2023-02-28T17:20:31;8.80;88.60
44823;DHT22;51097;51.984;5.650;2023-02-28T17:22:57;8.60;88.20
44823;DHT22;51097;51.984;5.650;2023-02-28T17:25:23;8.60;88.20
44823;DHT22;51097;51.984;5.650;2023-02-28T17:27:49;8.60;88.80
44823;DHT22;51097;51.984;5.650;2023-02-28T17:30:26;8.50;89.40
44823;DHT22;51097;51.984;5.650;2023-02-28T17:32:55;8.40;88.80
44823;DHT22;51097;51.984;5.650;2023-02-28T17:35:21;8.30;90.00
44823;DHT22;51097;51.984;5.650;2023-02-28T17:37:56;8.20;90.30
44823;DHT22;51097;51.984;5.650;2023-02-28T17:40:23;8.10;90.10
44823;DHT22;51097;51.984;5.650;2023-02-28T17:42:48;8.10;89.10
44823;DHT22;51097;51.984;5.650;2023-02-28T17:45:15;8.00;89.50
44823;DHT22;51097;51.984;5.650;2023-02-28T17:47:42;8.00;89.60
44823;DHT22;51097;51.984;5.650;2023-02-28T17:50:18;7.80;89.30
44823;DHT22;51097;51.984;5.650;2023-02-28T17:52:45;7.80;88.00
44823;DHT22;51097;51.984;5.650;2023-02-28T17:55:11;7.60;90.00
44823;DHT22;51097;51.984;5.650;2023-02-28T17:57:37;7.40;90.60
44823;DHT22;51097;51.984;5.650;2023-02-28T18:00:03;7.30;90.80
44823;DHT22;51097;51.984;5.650;2023-02-28T18:02:32;7.20;90.70
44823;DHT22;51097;51.984;5.650;2023-02-28T18:04:58;7.10;91.00
44823;DHT22;51097;51.984;5.650;2023-02-28T18:07:24;7.00;90.80
44823;DHT22;51097;51.984;5.650;2023-02-28T18:09:50;7.00;91.10
44823;DHT22;51097;51.984;5.650;2023-02-28T18:12:15;7.00;91.10
44823;DHT22;51097;51.984;5.650;2023-02-28T18:14:41;6.80;91.00
44823;DHT22;51097;51.984;5.650;2023-02-28T18:17:09;6.80;90.90